Meramec River (Missouri), Eureka (07019000)

StateMissouriLatestUnknown (5510 cfs)
RiverMeramec RiverRatingObservedEstimated
Updated2020-02-25 15:30 (44 minutes ago)Flood - The river is flooding. Obstacles can be treacherous or deadly. The river should be avoided at this stage for casual trips and definitely for the inexperienced. Trips should be attempted only with protective gear and equipment.Flood(none)(none)
Discharge5510 cfs (median: 2250 cfs)High - The river is high and potentially dangerous, especially for the young and / or inexperienced. Normal stream obstacles are sometimes difficult to navigate. Extended distances can be attempted, but canoe travel may not be advisable.High(none)(none)
Height6.61 feetGood - Conditions are ideal for a canoe or kayak. Boats typically will drag on fewer than one-quarter of riffles, if at all, and portages are unnecessary or rare. Normal float lengths can be attempted without a problem.Good(none)(none)
TrendRising (rising over 24 hours)Low - River is low but can still be floated. Some riffles are okay but most come with significant dragging and might need a portage. Float lengths should be reduced to accommodate low flow, dragging, and portages.Low(none)(none)
USGSExternal icon USGS Site (External icon Google Maps)Poor - River is too low to float comfortably. Most or all riffles will drag or must be portaged and some obstacles (such as slick shelf rock) cause undue problems. Avoid the river at this stage for casual paddling trips.Poor(none)(none)

Trending Data

Plot Image

Trips for Meramec River (Missouri), Eureka (07019000)

DateStartEndDistanceConditionDischargeHeightFishingDetails

A total of 0 rows are displayed.

Condition Descriptions

Fishing Conditions

Fish Species

Notes

Classic Trip List

The classic River Trips application is still available for use. It is updated with the new system using a data retrofit. It is no longer maintained. The original River Trips application is no longer updated (as of 1 Dec 2016) but can be checked for errors or for the condition of the data before it was converted to the new system.

Gauge Data Table

ObservationHeightDischargeMaximum
Discharge
Minimum
Discharge
Mean
Discharge
P05P10P20P25P50
(Median)
P75P80P90P95
2020-02-25 15:30 6.61 5510 62500 (1985) 560 (1954) 5030 728 900 1230 1350 2250 5160 7030 10100 15900
2020-02-25 15:00 6.59 5470 62500 (1985) 560 (1954) 5030 728 900 1230 1350 2250 5160 7030 10100 15900
2020-02-25 14:30 6.57 5440 62500 (1985) 560 (1954) 5030 728 900 1230 1350 2250 5160 7030 10100 15900
2020-02-25 14:00 6.54 5380 62500 (1985) 560 (1954) 5030 728 900 1230 1350 2250 5160 7030 10100 15900
2020-02-25 13:30 6.42 5180 62500 (1985) 560 (1954) 5030 728 900 1230 1350 2250 5160 7030 10100 15900
2020-02-25 13:00 6.50 5310 62500 (1985) 560 (1954) 5030 728 900 1230 1350 2250 5160 7030 10100 15900
2020-02-25 12:30 6.46 5250 62500 (1985) 560 (1954) 5030 728 900 1230 1350 2250 5160 7030 10100 15900
2020-02-25 12:00 6.47 5260 62500 (1985) 560 (1954) 5030 728 900 1230 1350 2250 5160 7030 10100 15900
2020-02-25 11:30 6.41 5160 62500 (1985) 560 (1954) 5030 728 900 1230 1350 2250 5160 7030 10100 15900
2020-02-25 11:00 6.42 5180 62500 (1985) 560 (1954) 5030 728 900 1230 1350 2250 5160 7030 10100 15900
2020-02-25 10:30 6.37 5090 62500 (1985) 560 (1954) 5030 728 900 1230 1350 2250 5160 7030 10100 15900
2020-02-25 10:00 6.37 5090 62500 (1985) 560 (1954) 5030 728 900 1230 1350 2250 5160 7030 10100 15900
2020-02-25 09:30 6.35 5060 62500 (1985) 560 (1954) 5030 728 900 1230 1350 2250 5160 7030 10100 15900
2020-02-25 09:00 6.29 4960 62500 (1985) 560 (1954) 5030 728 900 1230 1350 2250 5160 7030 10100 15900
2020-02-25 08:30 6.27 4920 62500 (1985) 560 (1954) 5030 728 900 1230 1350 2250 5160 7030 10100 15900
2020-02-25 08:00 6.22 4840 62500 (1985) 560 (1954) 5030 728 900 1230 1350 2250 5160 7030 10100 15900
2020-02-25 07:30 6.19 4790 62500 (1985) 560 (1954) 5030 728 900 1230 1350 2250 5160 7030 10100 15900
2020-02-25 07:00 6.17 4750 62500 (1985) 560 (1954) 5030 728 900 1230 1350 2250 5160 7030 10100 15900
2020-02-25 06:30 6.12 4670 62500 (1985) 560 (1954) 5030 728 900 1230 1350 2250 5160 7030 10100 15900
2020-02-25 06:00 6.10 4640 62500 (1985) 560 (1954) 5030 728 900 1230 1350 2250 5160 7030 10100 15900
2020-02-25 05:30 6.03 4520 62500 (1985) 560 (1954) 5030 728 900 1230 1350 2250 5160 7030 10100 15900
2020-02-25 05:00 6.00 4470 62500 (1985) 560 (1954) 5030 728 900 1230 1350 2250 5160 7030 10100 15900
2020-02-25 04:30 5.93 4360 62500 (1985) 560 (1954) 5030 728 900 1230 1350 2250 5160 7030 10100 15900
2020-02-25 04:00 5.87 4260 62500 (1985) 560 (1954) 5030 728 900 1230 1350 2250 5160 7030 10100 15900
2020-02-25 03:30 5.84 4210 62500 (1985) 560 (1954) 5030 728 900 1230 1350 2250 5160 7030 10100 15900
2020-02-25 03:00 5.79 4130 62500 (1985) 560 (1954) 5030 728 900 1230 1350 2250 5160 7030 10100 15900
2020-02-25 02:30 5.73 4030 62500 (1985) 560 (1954) 5030 728 900 1230 1350 2250 5160 7030 10100 15900
2020-02-25 02:00 5.69 3970 62500 (1985) 560 (1954) 5030 728 900 1230 1350 2250 5160 7030 10100 15900
2020-02-25 01:30 5.63 3870 62500 (1985) 560 (1954) 5030 728 900 1230 1350 2250 5160 7030 10100 15900
2020-02-25 01:00 5.61 3840 62500 (1985) 560 (1954) 5030 728 900 1230 1350 2250 5160 7030 10100 15900
2020-02-25 00:30 5.55 3750 62500 (1985) 560 (1954) 5030 728 900 1230 1350 2250 5160 7030 10100 15900
2020-02-25 00:00 5.52 3700 62500 (1985) 560 (1954) 5030 728 900 1230 1350 2250 5160 7030 10100 15900
2020-02-24 23:30 5.48 3640 44100 (1985) 532 (1934) 4720 723 898 1230 1390 2370 4820 6230 11500 14400
2020-02-24 23:00 5.45 3590 44100 (1985) 532 (1934) 4720 723 898 1230 1390 2370 4820 6230 11500 14400
2020-02-24 22:30 5.41 3530 44100 (1985) 532 (1934) 4720 723 898 1230 1390 2370 4820 6230 11500 14400
2020-02-24 22:00 5.39 3500 44100 (1985) 532 (1934) 4720 723 898 1230 1390 2370 4820 6230 11500 14400
2020-02-24 21:30 5.38 3480 44100 (1985) 532 (1934) 4720 723 898 1230 1390 2370 4820 6230 11500 14400
2020-02-24 21:00 5.37 3470 44100 (1985) 532 (1934) 4720 723 898 1230 1390 2370 4820 6230 11500 14400
2020-02-24 20:30 5.34 3420 44100 (1985) 532 (1934) 4720 723 898 1230 1390 2370 4820 6230 11500 14400
2020-02-24 20:00 5.33 3400 44100 (1985) 532 (1934) 4720 723 898 1230 1390 2370 4820 6230 11500 14400
2020-02-24 19:30 5.32 3390 44100 (1985) 532 (1934) 4720 723 898 1230 1390 2370 4820 6230 11500 14400
2020-02-24 19:00 5.30 3360 44100 (1985) 532 (1934) 4720 723 898 1230 1390 2370 4820 6230 11500 14400
2020-02-24 18:30 5.27 3310 44100 (1985) 532 (1934) 4720 723 898 1230 1390 2370 4820 6230 11500 14400
2020-02-24 18:00 5.28 3330 44100 (1985) 532 (1934) 4720 723 898 1230 1390 2370 4820 6230 11500 14400
2020-02-24 17:30 5.25 3280 44100 (1985) 532 (1934) 4720 723 898 1230 1390 2370 4820 6230 11500 14400
2020-02-24 17:00 5.22 3240 44100 (1985) 532 (1934) 4720 723 898 1230 1390 2370 4820 6230 11500 14400
2020-02-24 16:30 5.21 3220 44100 (1985) 532 (1934) 4720 723 898 1230 1390 2370 4820 6230 11500 14400
2020-02-24 16:00 5.18 3180 44100 (1985) 532 (1934) 4720 723 898 1230 1390 2370 4820 6230 11500 14400
2020-02-24 15:30 5.17 3160 44100 (1985) 532 (1934) 4720 723 898 1230 1390 2370 4820 6230 11500 14400
2020-02-24 15:00 5.14 3120 44100 (1985) 532 (1934) 4720 723 898 1230 1390 2370 4820 6230 11500 14400
2020-02-24 14:30 5.14 3120 44100 (1985) 532 (1934) 4720 723 898 1230 1390 2370 4820 6230 11500 14400
2020-02-24 14:00 5.12 3090 44100 (1985) 532 (1934) 4720 723 898 1230 1390 2370 4820 6230 11500 14400
2020-02-24 13:30 5.12 3090 44100 (1985) 532 (1934) 4720 723 898 1230 1390 2370 4820 6230 11500 14400
2020-02-24 13:00 5.13 3100 44100 (1985) 532 (1934) 4720 723 898 1230 1390 2370 4820 6230 11500 14400
2020-02-24 12:30 5.11 3070 44100 (1985) 532 (1934) 4720 723 898 1230 1390 2370 4820 6230 11500 14400
2020-02-24 12:00 5.09 3040 44100 (1985) 532 (1934) 4720 723 898 1230 1390 2370 4820 6230 11500 14400
2020-02-24 11:30 5.11 3070 44100 (1985) 532 (1934) 4720 723 898 1230 1390 2370 4820 6230 11500 14400
2020-02-24 11:00 5.09 3040 44100 (1985) 532 (1934) 4720 723 898 1230 1390 2370 4820 6230 11500 14400
2020-02-24 10:30 5.09 3040 44100 (1985) 532 (1934) 4720 723 898 1230 1390 2370 4820 6230 11500 14400
2020-02-24 10:00 5.10 3060 44100 (1985) 532 (1934) 4720 723 898 1230 1390 2370 4820 6230 11500 14400
2020-02-24 09:30 5.09 3040 44100 (1985) 532 (1934) 4720 723 898 1230 1390 2370 4820 6230 11500 14400
2020-02-24 09:00 5.09 3040 44100 (1985) 532 (1934) 4720 723 898 1230 1390 2370 4820 6230 11500 14400
2020-02-24 08:30 5.07 3010 44100 (1985) 532 (1934) 4720 723 898 1230 1390 2370 4820 6230 11500 14400
2020-02-24 08:00 5.07 3010 44100 (1985) 532 (1934) 4720 723 898 1230 1390 2370 4820 6230 11500 14400
2020-02-24 07:30 5.07 3010 44100 (1985) 532 (1934) 4720 723 898 1230 1390 2370 4820 6230 11500 14400
2020-02-24 07:00 5.08 3030 44100 (1985) 532 (1934) 4720 723 898 1230 1390 2370 4820 6230 11500 14400
2020-02-24 06:30 5.07 3010 44100 (1985) 532 (1934) 4720 723 898 1230 1390 2370 4820 6230 11500 14400
2020-02-24 06:00 5.06 3000 44100 (1985) 532 (1934) 4720 723 898 1230 1390 2370 4820 6230 11500 14400
2020-02-24 05:30 5.07 3010 44100 (1985) 532 (1934) 4720 723 898 1230 1390 2370 4820 6230 11500 14400
2020-02-24 05:00 5.07 3010 44100 (1985) 532 (1934) 4720 723 898 1230 1390 2370 4820 6230 11500 14400
2020-02-24 04:30 5.06 3000 44100 (1985) 532 (1934) 4720 723 898 1230 1390 2370 4820 6230 11500 14400
2020-02-24 04:00 5.07 3010 44100 (1985) 532 (1934) 4720 723 898 1230 1390 2370 4820 6230 11500 14400
2020-02-24 03:30 5.05 2980 44100 (1985) 532 (1934) 4720 723 898 1230 1390 2370 4820 6230 11500 14400
2020-02-24 03:00 5.07 3010 44100 (1985) 532 (1934) 4720 723 898 1230 1390 2370 4820 6230 11500 14400
2020-02-24 02:30 5.07 3010 44100 (1985) 532 (1934) 4720 723 898 1230 1390 2370 4820 6230 11500 14400
2020-02-24 02:00 5.06 3000 44100 (1985) 532 (1934) 4720 723 898 1230 1390 2370 4820 6230 11500 14400
2020-02-24 01:30 5.07 3010 44100 (1985) 532 (1934) 4720 723 898 1230 1390 2370 4820 6230 11500 14400
2020-02-24 01:00 5.07 3010 44100 (1985) 532 (1934) 4720 723 898 1230 1390 2370 4820 6230 11500 14400
2020-02-24 00:30 5.07 3010 44100 (1985) 532 (1934) 4720 723 898 1230 1390 2370 4820 6230 11500 14400
2020-02-24 00:00 5.08 3030 44100 (1985) 532 (1934) 4720 723 898 1230 1390 2370 4820 6230 11500 14400
2020-02-23 23:30 5.06 3000 29700 (1985) 562 (1934) 4460 734 902 1170 1400 2420 4470 6470 11300 18400
2020-02-23 23:00 5.07 3010 29700 (1985) 562 (1934) 4460 734 902 1170 1400 2420 4470 6470 11300 18400
2020-02-23 22:30 5.07 3010 29700 (1985) 562 (1934) 4460 734 902 1170 1400 2420 4470 6470 11300 18400
2020-02-23 22:00 5.09 3040 29700 (1985) 562 (1934) 4460 734 902 1170 1400 2420 4470 6470 11300 18400
2020-02-23 21:30 5.08 3030 29700 (1985) 562 (1934) 4460 734 902 1170 1400 2420 4470 6470 11300 18400
2020-02-23 21:00 5.09 3040 29700 (1985) 562 (1934) 4460 734 902 1170 1400 2420 4470 6470 11300 18400
2020-02-23 20:30 5.09 3040 29700 (1985) 562 (1934) 4460 734 902 1170 1400 2420 4470 6470 11300 18400
2020-02-23 20:00 5.09 3040 29700 (1985) 562 (1934) 4460 734 902 1170 1400 2420 4470 6470 11300 18400
2020-02-23 19:30 5.10 3060 29700 (1985) 562 (1934) 4460 734 902 1170 1400 2420 4470 6470 11300 18400
2020-02-23 19:00 5.11 3070 29700 (1985) 562 (1934) 4460 734 902 1170 1400 2420 4470 6470 11300 18400
2020-02-23 18:30 5.10 3060 29700 (1985) 562 (1934) 4460 734 902 1170 1400 2420 4470 6470 11300 18400
2020-02-23 18:00 5.10 3060 29700 (1985) 562 (1934) 4460 734 902 1170 1400 2420 4470 6470 11300 18400
2020-02-23 17:30 5.11 3070 29700 (1985) 562 (1934) 4460 734 902 1170 1400 2420 4470 6470 11300 18400
2020-02-23 17:00 5.12 3090 29700 (1985) 562 (1934) 4460 734 902 1170 1400 2420 4470 6470 11300 18400
2020-02-23 16:30 5.13 3100 29700 (1985) 562 (1934) 4460 734 902 1170 1400 2420 4470 6470 11300 18400
2020-02-23 16:00 5.11 3070 29700 (1985) 562 (1934) 4460 734 902 1170 1400 2420 4470 6470 11300 18400
2020-02-23 15:30 5.11 3070 29700 (1985) 562 (1934) 4460 734 902 1170 1400 2420 4470 6470 11300 18400
2020-02-23 15:00 5.12 3090 29700 (1985) 562 (1934) 4460 734 902 1170 1400 2420 4470 6470 11300 18400
2020-02-23 14:30 5.12 3090 29700 (1985) 562 (1934) 4460 734 902 1170 1400 2420 4470 6470 11300 18400
2020-02-23 14:00 5.13 3100 29700 (1985) 562 (1934) 4460 734 902 1170 1400 2420 4470 6470 11300 18400
2020-02-23 13:30 5.15 3130 29700 (1985) 562 (1934) 4460 734 902 1170 1400 2420 4470 6470 11300 18400
2020-02-23 13:00 5.14 3120 29700 (1985) 562 (1934) 4460 734 902 1170 1400 2420 4470 6470 11300 18400
2020-02-23 12:30 5.13 3100 29700 (1985) 562 (1934) 4460 734 902 1170 1400 2420 4470 6470 11300 18400
2020-02-23 12:00 5.14 3120 29700 (1985) 562 (1934) 4460 734 902 1170 1400 2420 4470 6470 11300 18400
2020-02-23 11:30 5.15 3130 29700 (1985) 562 (1934) 4460 734 902 1170 1400 2420 4470 6470 11300 18400
2020-02-23 11:00 5.15 3130 29700 (1985) 562 (1934) 4460 734 902 1170 1400 2420 4470 6470 11300 18400
2020-02-23 10:30 5.16 3150 29700 (1985) 562 (1934) 4460 734 902 1170 1400 2420 4470 6470 11300 18400
2020-02-23 10:00 5.13 3100 29700 (1985) 562 (1934) 4460 734 902 1170 1400 2420 4470 6470 11300 18400
2020-02-23 09:30 5.17 3160 29700 (1985) 562 (1934) 4460 734 902 1170 1400 2420 4470 6470 11300 18400
2020-02-23 09:00 5.16 3150 29700 (1985) 562 (1934) 4460 734 902 1170 1400 2420 4470 6470 11300 18400
2020-02-23 08:30 5.15 3130 29700 (1985) 562 (1934) 4460 734 902 1170 1400 2420 4470 6470 11300 18400
2020-02-23 08:00 5.16 3150 29700 (1985) 562 (1934) 4460 734 902 1170 1400 2420 4470 6470 11300 18400
2020-02-23 07:30 5.17 3160 29700 (1985) 562 (1934) 4460 734 902 1170 1400 2420 4470 6470 11300 18400
2020-02-23 07:00 5.19 3190 29700 (1985) 562 (1934) 4460 734 902 1170 1400 2420 4470 6470 11300 18400
2020-02-23 06:30 5.18 3180 29700 (1985) 562 (1934) 4460 734 902 1170 1400 2420 4470 6470 11300 18400
2020-02-23 06:00 5.18 3180 29700 (1985) 562 (1934) 4460 734 902 1170 1400 2420 4470 6470 11300 18400
2020-02-23 05:30 5.19 3190 29700 (1985) 562 (1934) 4460 734 902 1170 1400 2420 4470 6470 11300 18400
2020-02-23 05:00 5.20 3210 29700 (1985) 562 (1934) 4460 734 902 1170 1400 2420 4470 6470 11300 18400
2020-02-23 04:30 5.19 3190 29700 (1985) 562 (1934) 4460 734 902 1170 1400 2420 4470 6470 11300 18400
2020-02-23 04:00 5.19 3190 29700 (1985) 562 (1934) 4460 734 902 1170 1400 2420 4470 6470 11300 18400
2020-02-23 03:30 5.19 3190 29700 (1985) 562 (1934) 4460 734 902 1170 1400 2420 4470 6470 11300 18400
2020-02-23 03:00 5.19 3190 29700 (1985) 562 (1934) 4460 734 902 1170 1400 2420 4470 6470 11300 18400
2020-02-23 02:30 5.20 3210 29700 (1985) 562 (1934) 4460 734 902 1170 1400 2420 4470 6470 11300 18400
2020-02-23 02:00 5.20 3210 29700 (1985) 562 (1934) 4460 734 902 1170 1400 2420 4470 6470 11300 18400
2020-02-23 01:30 5.22 3240 29700 (1985) 562 (1934) 4460 734 902 1170 1400 2420 4470 6470 11300 18400
2020-02-23 01:00 5.20 3210 29700 (1985) 562 (1934) 4460 734 902 1170 1400 2420 4470 6470 11300 18400
2020-02-23 00:30 5.22 3240 29700 (1985) 562 (1934) 4460 734 902 1170 1400 2420 4470 6470 11300 18400
2020-02-23 00:00 5.21 3220 29700 (1985) 562 (1934) 4460 734 902 1170 1400 2420 4470 6470 11300 18400
2020-02-22 23:30 5.22 3240 33700 (1951) 562 (1934) 4290 772 939 1140 1340 2490 3840 5040 12000 17000
2020-02-22 23:00 5.22 3240 33700 (1951) 562 (1934) 4290 772 939 1140 1340 2490 3840 5040 12000 17000
2020-02-22 22:30 5.21 3220 33700 (1951) 562 (1934) 4290 772 939 1140 1340 2490 3840 5040 12000 17000
2020-02-22 22:00 5.22 3240 33700 (1951) 562 (1934) 4290 772 939 1140 1340 2490 3840 5040 12000 17000
2020-02-22 21:30 5.24 3270 33700 (1951) 562 (1934) 4290 772 939 1140 1340 2490 3840 5040 12000 17000
2020-02-22 21:00 5.24 3270 33700 (1951) 562 (1934) 4290 772 939 1140 1340 2490 3840 5040 12000 17000
2020-02-22 20:30 5.23 3250 33700 (1951) 562 (1934) 4290 772 939 1140 1340 2490 3840 5040 12000 17000
2020-02-22 20:00 5.25 3280 33700 (1951) 562 (1934) 4290 772 939 1140 1340 2490 3840 5040 12000 17000
2020-02-22 19:30 5.26 3300 33700 (1951) 562 (1934) 4290 772 939 1140 1340 2490 3840 5040 12000 17000
2020-02-22 19:00 5.25 3280 33700 (1951) 562 (1934) 4290 772 939 1140 1340 2490 3840 5040 12000 17000
2020-02-22 18:30 5.24 3270 33700 (1951) 562 (1934) 4290 772 939 1140 1340 2490 3840 5040 12000 17000
2020-02-22 18:00 5.25 3280 33700 (1951) 562 (1934) 4290 772 939 1140 1340 2490 3840 5040 12000 17000
2020-02-22 17:30 5.26 3300 33700 (1951) 562 (1934) 4290 772 939 1140 1340 2490 3840 5040 12000 17000
2020-02-22 17:00 5.27 3310 33700 (1951) 562 (1934) 4290 772 939 1140 1340 2490 3840 5040 12000 17000
2020-02-22 16:30 5.26 3300 33700 (1951) 562 (1934) 4290 772 939 1140 1340 2490 3840 5040 12000 17000
2020-02-22 16:00 5.27 3310 33700 (1951) 562 (1934) 4290 772 939 1140 1340 2490 3840 5040 12000 17000
2020-02-22 15:30 5.28 3330 33700 (1951) 562 (1934) 4290 772 939 1140 1340 2490 3840 5040 12000 17000
2020-02-22 15:00 5.28 3330 33700 (1951) 562 (1934) 4290 772 939 1140 1340 2490 3840 5040 12000 17000
2020-02-22 14:30 5.28 3330 33700 (1951) 562 (1934) 4290 772 939 1140 1340 2490 3840 5040 12000 17000
2020-02-22 14:00 5.30 3360 33700 (1951) 562 (1934) 4290 772 939 1140 1340 2490 3840 5040 12000 17000
2020-02-22 13:30 5.29 3340 33700 (1951) 562 (1934) 4290 772 939 1140 1340 2490 3840 5040 12000 17000
2020-02-22 13:00 5.29 3340 33700 (1951) 562 (1934) 4290 772 939 1140 1340 2490 3840 5040 12000 17000
2020-02-22 12:30 5.30 3360 33700 (1951) 562 (1934) 4290 772 939 1140 1340 2490 3840 5040 12000 17000
2020-02-22 12:00 5.31 3370 33700 (1951) 562 (1934) 4290 772 939 1140 1340 2490 3840 5040 12000 17000
2020-02-22 11:30 5.33 3400 33700 (1951) 562 (1934) 4290 772 939 1140 1340 2490 3840 5040 12000 17000
2020-02-22 11:00 5.30 3360 33700 (1951) 562 (1934) 4290 772 939 1140 1340 2490 3840 5040 12000 17000
2020-02-22 10:30 5.32 3390 33700 (1951) 562 (1934) 4290 772 939 1140 1340 2490 3840 5040 12000 17000
2020-02-22 10:00 5.32 3390 33700 (1951) 562 (1934) 4290 772 939 1140 1340 2490 3840 5040 12000 17000
2020-02-22 09:30 5.32 3390 33700 (1951) 562 (1934) 4290 772 939 1140 1340 2490 3840 5040 12000 17000
2020-02-22 09:00 5.33 3400 33700 (1951) 562 (1934) 4290 772 939 1140 1340 2490 3840 5040 12000 17000
2020-02-22 08:30 5.32 3390 33700 (1951) 562 (1934) 4290 772 939 1140 1340 2490 3840 5040 12000 17000
2020-02-22 08:00 5.31 3370 33700 (1951) 562 (1934) 4290 772 939 1140 1340 2490 3840 5040 12000 17000
2020-02-22 07:30 5.36 3450 33700 (1951) 562 (1934) 4290 772 939 1140 1340 2490 3840 5040 12000 17000
2020-02-22 07:00 5.35 3440 33700 (1951) 562 (1934) 4290 772 939 1140 1340 2490 3840 5040 12000 17000
2020-02-22 06:30 5.35 3440 33700 (1951) 562 (1934) 4290 772 939 1140 1340 2490 3840 5040 12000 17000
2020-02-22 06:00 5.37 3470 33700 (1951) 562 (1934) 4290 772 939 1140 1340 2490 3840 5040 12000 17000
2020-02-22 05:30 5.35 3440 33700 (1951) 562 (1934) 4290 772 939 1140 1340 2490 3840 5040 12000 17000
2020-02-22 05:00 5.36 3450 33700 (1951) 562 (1934) 4290 772 939 1140 1340 2490 3840 5040 12000 17000
2020-02-22 04:30 5.38 3480 33700 (1951) 562 (1934) 4290 772 939 1140 1340 2490 3840 5040 12000 17000
2020-02-22 04:00 5.39 3500 33700 (1951) 562 (1934) 4290 772 939 1140 1340 2490 3840 5040 12000 17000
2020-02-22 03:30 5.35 3440 33700 (1951) 562 (1934) 4290 772 939 1140 1340 2490 3840 5040 12000 17000
2020-02-22 03:00 5.38 3480 33700 (1951) 562 (1934) 4290 772 939 1140 1340 2490 3840 5040 12000 17000
2020-02-22 02:30 5.39 3500 33700 (1951) 562 (1934) 4290 772 939 1140 1340 2490 3840 5040 12000 17000
2020-02-22 02:00 5.40 3510 33700 (1951) 562 (1934) 4290 772 939 1140 1340 2490 3840 5040 12000 17000
2020-02-22 01:30 5.40 3510 33700 (1951) 562 (1934) 4290 772 939 1140 1340 2490 3840 5040 12000 17000
2020-02-22 01:00 5.41 3530 33700 (1951) 562 (1934) 4290 772 939 1140 1340 2490 3840 5040 12000 17000
2020-02-22 00:30 5.41 3530 33700 (1951) 562 (1934) 4290 772 939 1140 1340 2490 3840 5040 12000 17000
2020-02-22 00:00 5.42 3540 33700 (1951) 562 (1934) 4290 772 939 1140 1340 2490 3840 5040 12000 17000
2020-02-21 23:30 5.44 3570 42000 (1938) 562 (1934) 4170 807 919 1150 1380 2380 3770 4640 8720 16000
2020-02-21 23:00 5.43 3560 42000 (1938) 562 (1934) 4170 807 919 1150 1380 2380 3770 4640 8720 16000
2020-02-21 22:30 5.44 3570 42000 (1938) 562 (1934) 4170 807 919 1150 1380 2380 3770 4640 8720 16000
2020-02-21 22:00 5.42 3540 42000 (1938) 562 (1934) 4170 807 919 1150 1380 2380 3770 4640 8720 16000
2020-02-21 21:30 5.44 3570 42000 (1938) 562 (1934) 4170 807 919 1150 1380 2380 3770 4640 8720 16000
2020-02-21 21:00 5.48 3640 42000 (1938) 562 (1934) 4170 807 919 1150 1380 2380 3770 4640 8720 16000
2020-02-21 20:30 5.46 3610 42000 (1938) 562 (1934) 4170 807 919 1150 1380 2380 3770 4640 8720 16000
2020-02-21 20:00 5.46 3610 42000 (1938) 562 (1934) 4170 807 919 1150 1380 2380 3770 4640 8720 16000
2020-02-21 19:30 5.45 3590 42000 (1938) 562 (1934) 4170 807 919 1150 1380 2380 3770 4640 8720 16000
2020-02-21 19:00 5.48 3640 42000 (1938) 562 (1934) 4170 807 919 1150 1380 2380 3770 4640 8720 16000
2020-02-21 18:30 5.47 3620 42000 (1938) 562 (1934) 4170 807 919 1150 1380 2380 3770 4640 8720 16000
2020-02-21 18:00 5.47 3620 42000 (1938) 562 (1934) 4170 807 919 1150 1380 2380 3770 4640 8720 16000
2020-02-21 17:30 5.50 3670 42000 (1938) 562 (1934) 4170 807 919 1150 1380 2380 3770 4640 8720 16000
2020-02-21 17:00 5.48 3640 42000 (1938) 562 (1934) 4170 807 919 1150 1380 2380 3770 4640 8720 16000
2020-02-21 16:30 5.49 3650 42000 (1938) 562 (1934) 4170 807 919 1150 1380 2380 3770 4640 8720 16000
2020-02-21 16:00 5.49 3650 42000 (1938) 562 (1934) 4170 807 919 1150 1380 2380 3770 4640 8720 16000
2020-02-21 15:30 5.52 3700 42000 (1938) 562 (1934) 4170 807 919 1150 1380 2380 3770 4640 8720 16000
2020-02-21 15:00 5.50 3670 42000 (1938) 562 (1934) 4170 807 919 1150 1380 2380 3770 4640 8720 16000
2020-02-21 14:30 5.49 3650 42000 (1938) 562 (1934) 4170 807 919 1150 1380 2380 3770 4640 8720 16000
2020-02-21 14:00 5.49 3650 42000 (1938) 562 (1934) 4170 807 919 1150 1380 2380 3770 4640 8720 16000
2020-02-21 13:30 5.52 3700 42000 (1938) 562 (1934) 4170 807 919 1150 1380 2380 3770 4640 8720 16000
2020-02-21 13:00 5.53 3720 42000 (1938) 562 (1934) 4170 807 919 1150 1380 2380 3770 4640 8720 16000
2020-02-21 12:30 5.51 3680 42000 (1938) 562 (1934) 4170 807 919 1150 1380 2380 3770 4640 8720 16000
2020-02-21 12:00 5.53 3720 42000 (1938) 562 (1934) 4170 807 919 1150 1380 2380 3770 4640 8720 16000
2020-02-21 11:30 5.53 3720 42000 (1938) 562 (1934) 4170 807 919 1150 1380 2380 3770 4640 8720 16000
2020-02-21 11:00 5.53 3720 42000 (1938) 562 (1934) 4170 807 919 1150 1380 2380 3770 4640 8720 16000
2020-02-21 10:30 5.50 3670 42000 (1938) 562 (1934) 4170 807 919 1150 1380 2380 3770 4640 8720 16000
2020-02-21 10:00 5.51 3680 42000 (1938) 562 (1934) 4170 807 919 1150 1380 2380 3770 4640 8720 16000
2020-02-21 09:30 5.53 3720 42000 (1938) 562 (1934) 4170 807 919 1150 1380 2380 3770 4640 8720 16000
2020-02-21 09:00 5.54 3730 42000 (1938) 562 (1934) 4170 807 919 1150 1380 2380 3770 4640 8720 16000
2020-02-21 08:30 5.51 3680 42000 (1938) 562 (1934) 4170 807 919 1150 1380 2380 3770 4640 8720 16000
2020-02-21 08:00 5.55 3750 42000 (1938) 562 (1934) 4170 807 919 1150 1380 2380 3770 4640 8720 16000
2020-02-21 07:30 5.54 3730 42000 (1938) 562 (1934) 4170 807 919 1150 1380 2380 3770 4640 8720 16000
2020-02-21 07:00 5.53 3720 42000 (1938) 562 (1934) 4170 807 919 1150 1380 2380 3770 4640 8720 16000
2020-02-21 06:30 5.54 3730 42000 (1938) 562 (1934) 4170 807 919 1150 1380 2380 3770 4640 8720 16000
2020-02-21 06:00 5.57 3780 42000 (1938) 562 (1934) 4170 807 919 1150 1380 2380 3770 4640 8720 16000
2020-02-21 05:30 5.55 3750 42000 (1938) 562 (1934) 4170 807 919 1150 1380 2380 3770 4640 8720 16000
2020-02-21 05:00 5.59 3810 42000 (1938) 562 (1934) 4170 807 919 1150 1380 2380 3770 4640 8720 16000
2020-02-21 04:30 5.57 3780 42000 (1938) 562 (1934) 4170 807 919 1150 1380 2380 3770 4640 8720 16000
2020-02-21 04:00 5.59 3810 42000 (1938) 562 (1934) 4170 807 919 1150 1380 2380 3770 4640 8720 16000
2020-02-21 03:30 5.59 3810 42000 (1938) 562 (1934) 4170 807 919 1150 1380 2380 3770 4640 8720 16000
2020-02-21 03:00 5.59 3810 42000 (1938) 562 (1934) 4170 807 919 1150 1380 2380 3770 4640 8720 16000
2020-02-21 02:30 5.56 3760 42000 (1938) 562 (1934) 4170 807 919 1150 1380 2380 3770 4640 8720 16000
2020-02-21 02:00 5.60 3830 42000 (1938) 562 (1934) 4170 807 919 1150 1380 2380 3770 4640 8720 16000
2020-02-21 01:30 5.62 3860 42000 (1938) 562 (1934) 4170 807 919 1150 1380 2380 3770 4640 8720 16000
2020-02-21 01:00 5.61 3840 42000 (1938) 562 (1934) 4170 807 919 1150 1380 2380 3770 4640 8720 16000
2020-02-21 00:30 5.64 3890 42000 (1938) 562 (1934) 4170 807 919 1150 1380 2380 3770 4640 8720 16000
2020-02-21 00:00 5.64 3890 42000 (1938) 562 (1934) 4170 807 919 1150 1380 2380 3770 4640 8720 16000
2020-02-20 23:30 5.63 3870 43100 (1938) 532 (1934) 4040 764 904 1110 1190 2220 3680 4450 6700 13200
2020-02-20 23:00 5.62 3860 43100 (1938) 532 (1934) 4040 764 904 1110 1190 2220 3680 4450 6700 13200
2020-02-20 22:30 5.63 3870 43100 (1938) 532 (1934) 4040 764 904 1110 1190 2220 3680 4450 6700 13200
2020-02-20 22:00 5.66 3920 43100 (1938) 532 (1934) 4040 764 904 1110 1190 2220 3680 4450 6700 13200
2020-02-20 21:30 5.64 3890 43100 (1938) 532 (1934) 4040 764 904 1110 1190 2220 3680 4450 6700 13200
2020-02-20 21:00 5.66 3920 43100 (1938) 532 (1934) 4040 764 904 1110 1190 2220 3680 4450 6700 13200
2020-02-20 20:30 5.67 3940 43100 (1938) 532 (1934) 4040 764 904 1110 1190 2220 3680 4450 6700 13200
2020-02-20 20:00 5.67 3940 43100 (1938) 532 (1934) 4040 764 904 1110 1190 2220 3680 4450 6700 13200
2020-02-20 19:30 5.66 3920 43100 (1938) 532 (1934) 4040 764 904 1110 1190 2220 3680 4450 6700 13200
2020-02-20 19:00 5.69 3970 43100 (1938) 532 (1934) 4040 764 904 1110 1190 2220 3680 4450 6700 13200
2020-02-20 18:30 5.67 3940 43100 (1938) 532 (1934) 4040 764 904 1110 1190 2220 3680 4450 6700 13200
2020-02-20 18:00 5.67 3940 43100 (1938) 532 (1934) 4040 764 904 1110 1190 2220 3680 4450 6700 13200
2020-02-20 17:30 5.65 3900 43100 (1938) 532 (1934) 4040 764 904 1110 1190 2220 3680 4450 6700 13200
2020-02-20 17:00 5.70 3980 43100 (1938) 532 (1934) 4040 764 904 1110 1190 2220 3680 4450 6700 13200
2020-02-20 16:30 5.67 3940 43100 (1938) 532 (1934) 4040 764 904 1110 1190 2220 3680 4450 6700 13200
2020-02-20 16:00 5.71 4000 43100 (1938) 532 (1934) 4040 764 904 1110 1190 2220 3680 4450 6700 13200
2020-02-20 15:30 5.70 3980 43100 (1938) 532 (1934) 4040 764 904 1110 1190 2220 3680 4450 6700 13200
2020-02-20 15:00 5.70 3980 43100 (1938) 532 (1934) 4040 764 904 1110 1190 2220 3680 4450 6700 13200
2020-02-20 14:30 5.70 3980 43100 (1938) 532 (1934) 4040 764 904 1110 1190 2220 3680 4450 6700 13200
2020-02-20 14:00 5.74 4050 43100 (1938) 532 (1934) 4040 764 904 1110 1190 2220 3680 4450 6700 13200
2020-02-20 13:30 5.73 4030 43100 (1938) 532 (1934) 4040 764 904 1110 1190 2220 3680 4450 6700 13200
2020-02-20 13:00 5.70 3980 43100 (1938) 532 (1934) 4040 764 904 1110 1190 2220 3680 4450 6700 13200
2020-02-20 12:30 5.75 4060 43100 (1938) 532 (1934) 4040 764 904 1110 1190 2220 3680 4450 6700 13200
2020-02-20 12:00 5.72 4020 43100 (1938) 532 (1934) 4040 764 904 1110 1190 2220 3680 4450 6700 13200
2020-02-20 11:30 5.76 4080 43100 (1938) 532 (1934) 4040 764 904 1110 1190 2220 3680 4450 6700 13200
2020-02-20 11:00 5.75 4060 43100 (1938) 532 (1934) 4040 764 904 1110 1190 2220 3680 4450 6700 13200
2020-02-20 10:30 5.72 4020 43100 (1938) 532 (1934) 4040 764 904 1110 1190 2220 3680 4450 6700 13200
2020-02-20 10:00 5.75 4060 43100 (1938) 532 (1934) 4040 764 904 1110 1190 2220 3680 4450 6700 13200
2020-02-20 09:30 5.79 4130 43100 (1938) 532 (1934) 4040 764 904 1110 1190 2220 3680 4450 6700 13200
2020-02-20 09:00 5.79 4130 43100 (1938) 532 (1934) 4040 764 904 1110 1190 2220 3680 4450 6700 13200
2020-02-20 08:30 5.75 4060 43100 (1938) 532 (1934) 4040 764 904 1110 1190 2220 3680 4450 6700 13200
2020-02-20 08:00 5.79 4130 43100 (1938) 532 (1934) 4040 764 904 1110 1190 2220 3680 4450 6700 13200
2020-02-20 07:30 5.78 4070 43100 (1938) 532 (1934) 4040 764 904 1110 1190 2220 3680 4450 6700 13200
2020-02-20 07:00 5.82 4130 43100 (1938) 532 (1934) 4040 764 904 1110 1190 2220 3680 4450 6700 13200
2020-02-20 06:30 5.77 4050 43100 (1938) 532 (1934) 4040 764 904 1110 1190 2220 3680 4450 6700 13200
2020-02-20 06:00 5.76 4030 43100 (1938) 532 (1934) 4040 764 904 1110 1190 2220 3680 4450 6700 13200
2020-02-20 05:30 5.84 4160 43100 (1938) 532 (1934) 4040 764 904 1110 1190 2220 3680 4450 6700 13200
2020-02-20 05:00 5.79 4080 43100 (1938) 532 (1934) 4040 764 904 1110 1190 2220 3680 4450 6700 13200
2020-02-20 04:30 5.81 4110 43100 (1938) 532 (1934) 4040 764 904 1110 1190 2220 3680 4450 6700 13200
2020-02-20 04:00 5.81 4110 43100 (1938) 532 (1934) 4040 764 904 1110 1190 2220 3680 4450 6700 13200
2020-02-20 03:30 5.84 4160 43100 (1938) 532 (1934) 4040 764 904 1110 1190 2220 3680 4450 6700 13200
2020-02-20 03:00 5.81 4110 43100 (1938) 532 (1934) 4040 764 904 1110 1190 2220 3680 4450 6700 13200
2020-02-20 02:30 5.83 4150 43100 (1938) 532 (1934) 4040 764 904 1110 1190 2220 3680 4450 6700 13200
2020-02-20 02:00 5.84 4160 43100 (1938) 532 (1934) 4040 764 904 1110 1190 2220 3680 4450 6700 13200
2020-02-20 01:30 5.85 4180 43100 (1938) 532 (1934) 4040 764 904 1110 1190 2220 3680 4450 6700 13200
2020-02-20 01:00 5.88 4230 43100 (1938) 532 (1934) 4040 764 904 1110 1190 2220 3680 4450 6700 13200
2020-02-20 00:30 5.87 4210 43100 (1938) 532 (1934) 4040 764 904 1110 1190 2220 3680 4450 6700 13200
2020-02-20 00:00 5.89 4250 43100 (1938) 532 (1934) 4040 764 904 1110 1190 2220 3680 4450 6700 13200
2020-02-19 23:30 5.88 4230 40400 (1982) 532 (1934) 3900 756 855 1060 1170 2360 3700 4330 6850 15200
2020-02-19 23:00 5.86 4200 40400 (1982) 532 (1934) 3900 756 855 1060 1170 2360 3700 4330 6850 15200
2020-02-19 22:30 5.89 4250 40400 (1982) 532 (1934) 3900 756 855 1060 1170 2360 3700 4330 6850 15200
2020-02-19 22:00 5.87 4210 40400 (1982) 532 (1934) 3900 756 855 1060 1170 2360 3700 4330 6850 15200
2020-02-19 21:30 5.91 4280 40400 (1982) 532 (1934) 3900 756 855 1060 1170 2360 3700 4330 6850 15200
2020-02-19 21:00 5.91 4280 40400 (1982) 532 (1934) 3900 756 855 1060 1170 2360 3700 4330 6850 15200
2020-02-19 20:30 5.91 4280 40400 (1982) 532 (1934) 3900 756 855 1060 1170 2360 3700 4330 6850 15200
2020-02-19 20:00 5.90 4260 40400 (1982) 532 (1934) 3900 756 855 1060 1170 2360 3700 4330 6850 15200
2020-02-19 19:30 5.91 4280 40400 (1982) 532 (1934) 3900 756 855 1060 1170 2360 3700 4330 6850 15200
2020-02-19 19:00 5.93 4310 40400 (1982) 532 (1934) 3900 756 855 1060 1170 2360 3700 4330 6850 15200
2020-02-19 18:30 5.89 4250 40400 (1982) 532 (1934) 3900 756 855 1060 1170 2360 3700 4330 6850 15200
2020-02-19 18:00 5.93 4310 40400 (1982) 532 (1934) 3900 756 855 1060 1170 2360 3700 4330 6850 15200
2020-02-19 17:30 5.91 4280 40400 (1982) 532 (1934) 3900 756 855 1060 1170 2360 3700 4330 6850 15200
2020-02-19 17:00 5.93 4310 40400 (1982) 532 (1934) 3900 756 855 1060 1170 2360 3700 4330 6850 15200
2020-02-19 16:30 5.93 4310 40400 (1982) 532 (1934) 3900 756 855 1060 1170 2360 3700 4330 6850 15200
2020-02-19 16:00 5.96 4360 40400 (1982) 532 (1934) 3900 756 855 1060 1170 2360 3700 4330 6850 15200
2020-02-19 15:30 5.97 4380 40400 (1982) 532 (1934) 3900 756 855 1060 1170 2360 3700 4330 6850 15200
2020-02-19 15:00 5.98 4400 40400 (1982) 532 (1934) 3900 756 855 1060 1170 2360 3700 4330 6850 15200
2020-02-19 14:30 5.95 4350 40400 (1982) 532 (1934) 3900 756 855 1060 1170 2360 3700 4330 6850 15200
2020-02-19 14:00 5.99 4410 40400 (1982) 532 (1934) 3900 756 855 1060 1170 2360 3700 4330 6850 15200
2020-02-19 13:30 5.97 4380 40400 (1982) 532 (1934) 3900 756 855 1060 1170 2360 3700 4330 6850 15200
2020-02-19 13:00 5.96 4360 40400 (1982) 532 (1934) 3900 756 855 1060 1170 2360 3700 4330 6850 15200
2020-02-19 12:30 5.97 4380 40400 (1982) 532 (1934) 3900 756 855 1060 1170 2360 3700 4330 6850 15200
2020-02-19 12:00 6.00 4430 40400 (1982) 532 (1934) 3900 756 855 1060 1170 2360 3700 4330 6850 15200
2020-02-19 11:30 6.03 4480 40400 (1982) 532 (1934) 3900 756 855 1060 1170 2360 3700 4330 6850 15200
2020-02-19 11:00 6.03 4480 40400 (1982) 532 (1934) 3900 756 855 1060 1170 2360 3700 4330 6850 15200
2020-02-19 10:30 6.05 4520 40400 (1982) 532 (1934) 3900 756 855 1060 1170 2360 3700 4330 6850 15200
2020-02-19 10:00 5.99 4410 40400 (1982) 532 (1934) 3900 756 855 1060 1170 2360 3700 4330 6850 15200
2020-02-19 09:30 6.06 4530 40400 (1982) 532 (1934) 3900 756 855 1060 1170 2360 3700 4330 6850 15200
2020-02-19 09:00 6.07 4550 40400 (1982) 532 (1934) 3900 756 855 1060 1170 2360 3700 4330 6850 15200
2020-02-19 08:30 6.07 4550 40400 (1982) 532 (1934) 3900 756 855 1060 1170 2360 3700 4330 6850 15200
2020-02-19 08:00 6.04 4500 40400 (1982) 532 (1934) 3900 756 855 1060 1170 2360 3700 4330 6850 15200
2020-02-19 07:30 6.06 4530 40400 (1982) 532 (1934) 3900 756 855 1060 1170 2360 3700 4330 6850 15200
2020-02-19 07:00 6.08 4570 40400 (1982) 532 (1934) 3900 756 855 1060 1170 2360 3700 4330 6850 15200
2020-02-19 06:30 6.10 4600 40400 (1982) 532 (1934) 3900 756 855 1060 1170 2360 3700 4330 6850 15200
2020-02-19 06:00 6.06 4530 40400 (1982) 532 (1934) 3900 756 855 1060 1170 2360 3700 4330 6850 15200
2020-02-19 05:30 6.11 4620 40400 (1982) 532 (1934) 3900 756 855 1060 1170 2360 3700 4330 6850 15200
2020-02-19 05:00 6.10 4600 40400 (1982) 532 (1934) 3900 756 855 1060 1170 2360 3700 4330 6850 15200
2020-02-19 04:30 6.09 4580 40400 (1982) 532 (1934) 3900 756 855 1060 1170 2360 3700 4330 6850 15200
2020-02-19 04:00 6.12 4630 40400 (1982) 532 (1934) 3900 756 855 1060 1170 2360 3700 4330 6850 15200
2020-02-19 03:30 6.13 4650 40400 (1982) 532 (1934) 3900 756 855 1060 1170 2360 3700 4330 6850 15200
2020-02-19 03:00 6.15 4690 40400 (1982) 532 (1934) 3900 756 855 1060 1170 2360 3700 4330 6850 15200
2020-02-19 02:30 6.15 4690 40400 (1982) 532 (1934) 3900 756 855 1060 1170 2360 3700 4330 6850 15200
2020-02-19 02:00 6.12 4630 40400 (1982) 532 (1934) 3900 756 855 1060 1170 2360 3700 4330 6850 15200
2020-02-19 01:30 6.14 4670 40400 (1982) 532 (1934) 3900 756 855 1060 1170 2360 3700 4330 6850 15200
2020-02-19 01:00 6.15 4690 40400 (1982) 532 (1934) 3900 756 855 1060 1170 2360 3700 4330 6850 15200
2020-02-19 00:30 6.14 4670 40400 (1982) 532 (1934) 3900 756 855 1060 1170 2360 3700 4330 6850 15200
2020-02-19 00:00 6.16 4700 40400 (1982) 532 (1934) 3900 756 855 1060 1170 2360 3700 4330 6850 15200
2020-02-18 23:30 6.12 4630 34700 (1982) 517 (1954) 3750 643 890 1060 1180 2380 3920 4310 7260 13300
2020-02-18 23:00 6.19 4750 34700 (1982) 517 (1954) 3750 643 890 1060 1180 2380 3920 4310 7260 13300
2020-02-18 22:30 6.17 4720 34700 (1982) 517 (1954) 3750 643 890 1060 1180 2380 3920 4310 7260 13300
2020-02-18 22:00 6.21 4790 34700 (1982) 517 (1954) 3750 643 890 1060 1180 2380 3920 4310 7260 13300
2020-02-18 21:30 6.20 4770 34700 (1982) 517 (1954) 3750 643 890 1060 1180 2380 3920 4310 7260 13300
2020-02-18 21:00 6.21 4790 34700 (1982) 517 (1954) 3750 643 890 1060 1180 2380 3920 4310 7260 13300
2020-02-18 20:30 6.24 4840 34700 (1982) 517 (1954) 3750 643 890 1060 1180 2380 3920 4310 7260 13300
2020-02-18 20:00 6.24 4840 34700 (1982) 517 (1954) 3750 643 890 1060 1180 2380 3920 4310 7260 13300
2020-02-18 19:30 6.24 4840 34700 (1982) 517 (1954) 3750 643 890 1060 1180 2380 3920 4310 7260 13300
2020-02-18 19:00 6.28 4910 34700 (1982) 517 (1954) 3750 643 890 1060 1180 2380 3920 4310 7260 13300
2020-02-18 18:30 6.26 4870 34700 (1982) 517 (1954) 3750 643 890 1060 1180 2380 3920 4310 7260 13300
2020-02-18 18:00 6.26 4870 34700 (1982) 517 (1954) 3750 643 890 1060 1180 2380 3920 4310 7260 13300
2020-02-18 17:30 6.27 4890 34700 (1982) 517 (1954) 3750 643 890 1060 1180 2380 3920 4310 7260 13300
2020-02-18 17:00 6.27 4890 34700 (1982) 517 (1954) 3750 643 890 1060 1180 2380 3920 4310 7260 13300
2020-02-18 16:30 6.29 4930 34700 (1982) 517 (1954) 3750 643 890 1060 1180 2380 3920 4310 7260 13300
2020-02-18 16:00 6.31 4960 34700 (1982) 517 (1954) 3750 643 890 1060 1180 2380 3920 4310 7260 13300
2020-02-18 15:30 6.31 4960 34700 (1982) 517 (1954) 3750 643 890 1060 1180 2380 3920 4310 7260 13300
2020-02-18 15:00 6.33 5000 34700 (1982) 517 (1954) 3750 643 890 1060 1180 2380 3920 4310 7260 13300
2020-02-18 14:30 6.34 5010 34700 (1982) 517 (1954) 3750 643 890 1060 1180 2380 3920 4310 7260 13300
2020-02-18 14:00 6.33 5000 34700 (1982) 517 (1954) 3750 643 890 1060 1180 2380 3920 4310 7260 13300
2020-02-18 13:30 6.33 5000 34700 (1982) 517 (1954) 3750 643 890 1060 1180 2380 3920 4310 7260 13300
2020-02-18 13:00 6.33 5000 34700 (1982) 517 (1954) 3750 643 890 1060 1180 2380 3920 4310 7260 13300
2020-02-18 12:30 6.34 5010 34700 (1982) 517 (1954) 3750 643 890 1060 1180 2380 3920 4310 7260 13300
2020-02-18 12:00 6.38 5080 34700 (1982) 517 (1954) 3750 643 890 1060 1180 2380 3920 4310 7260 13300
2020-02-18 11:30 6.36 5050 34700 (1982) 517 (1954) 3750 643 890 1060 1180 2380 3920 4310 7260 13300
2020-02-18 11:00 6.41 5140 34700 (1982) 517 (1954) 3750 643 890 1060 1180 2380 3920 4310 7260 13300
2020-02-18 10:30 6.38 5080 34700 (1982) 517 (1954) 3750 643 890 1060 1180 2380 3920 4310 7260 13300
2020-02-18 10:00 6.40 5120 34700 (1982) 517 (1954) 3750 643 890 1060 1180 2380 3920 4310 7260 13300
2020-02-18 09:30 6.42 5150 34700 (1982) 517 (1954) 3750 643 890 1060 1180 2380 3920 4310 7260 13300
2020-02-18 09:00 6.42 5150 34700 (1982) 517 (1954) 3750 643 890 1060 1180 2380 3920 4310 7260 13300
2020-02-18 08:30 6.41 5140 34700 (1982) 517 (1954) 3750 643 890 1060 1180 2380 3920 4310 7260 13300
2020-02-18 08:00 6.43 5170 34700 (1982) 517 (1954) 3750 643 890 1060 1180 2380 3920 4310 7260 13300
2020-02-18 07:30 6.43 5170 34700 (1982) 517 (1954) 3750 643 890 1060 1180 2380 3920 4310 7260 13300
2020-02-18 07:00 6.46 5220 34700 (1982) 517 (1954) 3750 643 890 1060 1180 2380 3920 4310 7260 13300
2020-02-18 06:30 6.43 5170 34700 (1982) 517 (1954) 3750 643 890 1060 1180 2380 3920 4310 7260 13300
2020-02-18 06:00 6.47 5240 34700 (1982) 517 (1954) 3750 643 890 1060 1180 2380 3920 4310 7260 13300
2020-02-18 05:30 6.46 5220 34700 (1982) 517 (1954) 3750 643 890 1060 1180 2380 3920 4310 7260 13300
2020-02-18 05:00 6.49 5280 34700 (1982) 517 (1954) 3750 643 890 1060 1180 2380 3920 4310 7260 13300
2020-02-18 04:30 6.50 5290 34700 (1982) 517 (1954) 3750 643 890 1060 1180 2380 3920 4310 7260 13300
2020-02-18 04:00 6.49 5280 34700 (1982) 517 (1954) 3750 643 890 1060 1180 2380 3920 4310 7260 13300
2020-02-18 03:30 6.52 5330 34700 (1982) 517 (1954) 3750 643 890 1060 1180 2380 3920 4310 7260 13300
2020-02-18 03:00 6.50 5290 34700 (1982) 517 (1954) 3750 643 890 1060 1180 2380 3920 4310 7260 13300
2020-02-18 02:30 6.54 5360 34700 (1982) 517 (1954) 3750 643 890 1060 1180 2380 3920 4310 7260 13300
2020-02-18 02:00 6.52 5330 34700 (1982) 517 (1954) 3750 643 890 1060 1180 2380 3920 4310 7260 13300
2020-02-18 01:30 6.53 5350 34700 (1982) 517 (1954) 3750 643 890 1060 1180 2380 3920 4310 7260 13300
2020-02-18 01:00 6.55 5380 34700 (1982) 517 (1954) 3750 643 890 1060 1180 2380 3920 4310 7260 13300
2020-02-18 00:30 6.55 5380 34700 (1982) 517 (1954) 3750 643 890 1060 1180 2380 3920 4310 7260 13300
2020-02-18 00:00 6.54 5360 34700 (1982) 517 (1954) 3750 643 890 1060 1180 2380 3920 4310 7260 13300

A total of 368 rows are displayed for years 1904 through 2019.